createdAt,value
2022-08-12T00:01:20.046Z,7.7
2022-08-12T00:11:20.031Z,7.5
2022-08-12T00:21:20.067Z,7.6
2022-08-12T00:31:20.084Z,7.5
2022-08-12T00:41:20.085Z,7.5
2022-08-12T00:51:20.106Z,7.6
2022-08-12T01:01:20.167Z,7.4
2022-08-12T01:11:20.153Z,7.4
2022-08-12T01:21:20.146Z,7.5
2022-08-12T01:31:20.186Z,7.4
2022-08-12T01:41:20.179Z,7.3
2022-08-12T01:52:14.754Z,7.4
2022-08-12T02:01:20.273Z,7.1
2022-08-12T02:11:20.236Z,7.1
2022-08-12T02:21:20.078Z,7.1
2022-08-12T02:31:20.833Z,6.7
2022-08-12T02:41:20.261Z,6.6
2022-08-12T03:11:20.311Z,7.1
2022-08-12T03:31:20.349Z,6.6
2022-08-12T03:41:20.378Z,6.4
2022-08-12T04:11:20.415Z,6.5
2022-08-12T04:41:20.461Z,7.6
2022-08-12T05:11:20.506Z,8.2
2022-08-12T05:51:20.564Z,9.7
2022-08-12T06:21:20.620Z,10.2
2022-08-12T06:31:27.696Z,10.8
2022-08-12T06:51:20.658Z,10.9
2022-08-12T07:01:20.801Z,11.5
2022-08-12T07:41:20.549Z,11.5
2022-08-12T08:11:20.770Z,12.3
2022-08-12T08:21:20.778Z,13.6
2022-08-12T08:31:20.812Z,14.5
2022-08-12T08:51:20.833Z,14.5
2022-08-12T09:01:20.937Z,14.7
2022-08-12T09:12:11.365Z,14.8
2022-08-12T09:21:20.873Z,15
2022-08-12T09:32:03.585Z,15.7
2022-08-12T10:01:23.128Z,15.8
2022-08-12T10:11:21.002Z,14.4
2022-08-12T10:21:21.048Z,15.9
2022-08-12T10:31:20.801Z,15.5
2022-08-12T10:41:22.225Z,13.5
2022-08-12T10:52:04.740Z,15.4
2022-08-12T11:03:02.264Z,15.5
2022-08-12T11:11:27.760Z,15.5
2022-08-12T11:21:21.057Z,13.9
2022-08-12T11:31:21.057Z,15.1
2022-08-12T11:41:30.943Z,15.9
2022-08-12T12:01:58.439Z,13.7
2022-08-12T12:11:21.122Z,13
2022-08-12T12:21:48.291Z,14.9
2022-08-12T12:32:10.223Z,14.3
2022-08-12T12:41:21.171Z,17
2022-08-12T12:51:48.849Z,16
2022-08-12T13:01:25.654Z,13.3
2022-08-12T13:21:33.429Z,18.6
2022-08-12T13:31:21.254Z,15.8
2022-08-12T13:51:24.417Z,15.2
2022-08-12T14:01:21.297Z,13
2022-08-12T14:11:25.492Z,12.8
2022-08-12T14:21:22.344Z,15.1
2022-08-12T14:41:21.357Z,14.1
2022-08-12T15:01:21.730Z,15.3
2022-08-12T15:11:21.736Z,14.2
2022-08-12T15:51:21.484Z,10.8
2022-08-12T16:01:21.366Z,10.8
2022-08-12T16:11:21.498Z,10.3
2022-08-12T16:21:52.094Z,9.5
2022-08-12T16:31:22.930Z,9.9
2022-08-12T16:41:21.552Z,9.5
2022-08-12T16:51:21.559Z,8.9
2022-08-12T17:01:21.677Z,8.8
2022-08-12T17:32:00.457Z,8.4
2022-08-12T17:41:22.999Z,8
2022-08-12T17:51:21.647Z,8.2
2022-08-12T18:01:21.697Z,7.8
2022-08-12T18:12:03.232Z,8
2022-08-12T18:21:22.320Z,7.8
2022-08-12T18:31:22.082Z,7.7
2022-08-12T18:41:22.806Z,7.8
2022-08-12T18:51:45.644Z,7.5
2022-08-12T19:02:21.512Z,7.3
2022-08-12T19:21:21.779Z,6.9
2022-08-12T19:31:21.773Z,6.7
2022-08-12T19:41:22.687Z,6.6
2022-08-12T19:51:22.596Z,6.2
2022-08-12T20:01:21.825Z,6.2
2022-08-12T20:21:24.415Z,6.3
2022-08-12T20:31:21.867Z,6.1
2022-08-12T20:41:21.879Z,6.1
2022-08-12T20:51:21.883Z,6.1
2022-08-12T21:01:25.924Z,6.5
2022-08-12T21:11:21.943Z,6.6
2022-08-12T21:21:23.969Z,6.8
2022-08-12T21:32:37.238Z,7.1
2022-08-12T21:41:23.275Z,7.2
2022-08-12T22:01:22.964Z,7.4
2022-08-12T22:11:22.017Z,7.6
2022-08-12T22:21:24.527Z,7.5
2022-08-12T22:31:22.055Z,7.5
2022-08-12T22:41:22.053Z,7.7
2022-08-12T22:51:21.896Z,7.7
2022-08-12T23:01:52.218Z,7.3
2022-08-12T23:11:23.362Z,7.2
2022-08-12T23:31:30.366Z,7.3
2022-08-12T23:41:22.145Z,7.4
2022-08-12T23:51:24.313Z,7.3
